createdAt,value
2018-06-20T00:01:11.784Z,67.80
2018-06-20T00:03:40.072Z,67.80
2018-06-20T00:06:08.426Z,67.90
2018-06-20T00:08:42.787Z,67.90
2018-06-20T00:11:11.066Z,67.90
2018-06-20T00:13:39.368Z,67.90
2018-06-20T00:16:07.704Z,67.90
2018-06-20T00:18:35.987Z,67.90
2018-06-20T00:21:04.256Z,68.00
2018-06-20T00:23:32.530Z,67.90
2018-06-20T00:26:00.787Z,68.60
2018-06-20T00:28:29.096Z,68.20
2018-06-20T00:30:57.362Z,68.00
2018-06-20T00:38:21.964Z,67.70
2018-06-20T00:40:50.223Z,67.60
2018-06-20T00:43:18.494Z,67.60
2018-06-20T00:45:46.767Z,67.60
2018-06-20T00:48:15.324Z,68.20
2018-06-20T00:50:43.607Z,67.40
2018-06-20T00:53:11.931Z,67.40
2018-06-20T00:55:51.590Z,67.50
2018-06-20T00:58:19.953Z,67.40
2018-06-20T01:00:48.238Z,67.40
2018-06-20T01:03:16.516Z,67.40
2018-06-20T01:05:44.809Z,67.40
2018-06-20T01:08:13.088Z,67.40
2018-06-20T01:10:41.373Z,67.40
2018-06-20T01:13:09.635Z,67.40
2018-06-20T01:15:38.039Z,67.50
2018-06-20T01:18:06.305Z,67.50
2018-06-20T01:20:34.590Z,67.40
2018-06-20T01:23:02.861Z,67.40
2018-06-20T01:25:31.148Z,67.50
2018-06-20T01:27:59.431Z,67.50
2018-06-20T01:30:27.718Z,67.40
2018-06-20T01:32:56.281Z,67.60
2018-06-20T01:35:24.547Z,67.50
2018-06-20T01:37:52.808Z,67.50
2018-06-20T01:40:21.071Z,67.50
2018-06-20T01:42:49.355Z,67.50
2018-06-20T01:45:17.625Z,67.50
2018-06-20T01:47:45.895Z,67.60
2018-06-20T01:50:14.263Z,67.60
2018-06-20T01:55:10.533Z,67.70
2018-06-20T02:00:07.214Z,68.00
2018-06-20T02:02:35.520Z,67.90
2018-06-20T02:05:03.789Z,67.70
2018-06-20T02:07:32.157Z,67.70
2018-06-20T02:10:00.415Z,67.80
2018-06-20T02:12:28.727Z,67.80
2018-06-20T02:14:57.007Z,67.90
2018-06-20T02:17:25.297Z,68.60
2018-06-20T02:19:53.592Z,67.80
2018-06-20T02:22:21.873Z,67.80
2018-06-20T02:24:50.136Z,67.90
2018-06-20T02:27:18.417Z,67.90
2018-06-20T02:29:46.946Z,67.90
2018-06-20T02:32:15.230Z,67.90
2018-06-20T02:34:43.733Z,68.00
2018-06-20T02:37:12.002Z,67.90
2018-06-20T02:39:40.328Z,67.90
2018-06-20T02:42:08.613Z,67.90
2018-06-20T02:47:04.962Z,68.00
2018-06-20T02:49:33.238Z,68.00
2018-06-20T02:52:01.530Z,68.10
2018-06-20T02:56:58.774Z,68.00
2018-06-20T02:59:27.046Z,68.00
2018-06-20T03:01:55.351Z,68.10
2018-06-20T03:04:23.727Z,68.10
2018-06-20T03:06:52.068Z,68.10
2018-06-20T03:09:25.715Z,68.20
2018-06-20T03:11:54.058Z,68.20
2018-06-20T03:14:22.328Z,68.20
2018-06-20T03:16:50.718Z,68.20
2018-06-20T03:19:19.012Z,68.10
2018-06-20T03:21:47.278Z,68.20
2018-06-20T03:26:43.570Z,68.20
2018-06-20T03:29:11.858Z,68.20
2018-06-20T03:31:40.136Z,68.30
2018-06-20T03:34:08.419Z,68.30
2018-06-20T03:36:36.680Z,68.30
2018-06-20T03:39:07.067Z,68.40
2018-06-20T03:41:35.368Z,68.40
2018-06-20T03:44:03.954Z,68.50
2018-06-20T03:46:32.240Z,68.30
2018-06-20T03:49:00.520Z,68.30
2018-06-20T03:53:56.865Z,68.60
2018-06-20T03:56:25.327Z,68.50
2018-06-20T03:58:54.250Z,68.50
2018-06-20T04:01:22.673Z,68.60
2018-06-20T04:03:50.950Z,68.60
2018-06-20T04:06:19.242Z,68.60
2018-06-20T04:08:47.640Z,68.60
2018-06-20T04:11:15.909Z,68.60
2018-06-20T04:13:44.174Z,68.60
2018-06-20T04:16:12.476Z,68.70
2018-06-20T04:18:41.946Z,68.80
2018-06-20T04:21:11.894Z,68.80
2018-06-20T04:23:40.201Z,68.70
2018-06-20T04:26:09.512Z,68.70
2018-06-20T04:28:38.247Z,68.70
2018-06-20T04:33:36.224Z,68.60
2018-06-20T04:36:04.545Z,68.70
2018-06-20T04:38:32.864Z,68.80
2018-06-20T04:41:01.568Z,68.70
2018-06-20T04:43:29.864Z,68.70
2018-06-20T04:45:58.147Z,68.60
2018-06-20T04:48:26.537Z,68.50
2018-06-20T04:50:54.823Z,68.50
2018-06-20T04:53:23.075Z,68.50
2018-06-20T04:55:51.368Z,68.50
2018-06-20T04:58:19.672Z,68.40
2018-06-20T05:03:15.970Z,68.40
2018-06-20T05:05:44.252Z,68.40
2018-06-20T05:08:12.530Z,68.40
2018-06-20T05:10:40.794Z,68.60
2018-06-20T05:13:09.138Z,68.80
2018-06-20T05:15:37.420Z,69.30
2018-06-20T05:18:05.684Z,69.70
2018-06-20T05:20:33.970Z,70.00
2018-06-20T05:23:02.248Z,70.20
2018-06-20T05:27:58.655Z,70.20
2018-06-20T05:32:54.994Z,70.50
2018-06-20T05:35:23.234Z,70.50
2018-06-20T05:37:51.520Z,70.40
2018-06-20T05:40:19.784Z,70.50
2018-06-20T05:42:48.076Z,70.50
2018-06-20T05:45:16.340Z,70.40
2018-06-20T05:47:44.642Z,70.40
2018-06-20T05:50:12.923Z,70.50
2018-06-20T05:52:41.204Z,70.40
2018-06-20T05:55:09.486Z,70.50
2018-06-20T05:57:37.772Z,70.50
2018-06-20T06:00:06.050Z,70.30
2018-06-20T06:02:34.312Z,70.30
2018-06-20T06:05:02.602Z,70.30
2018-06-20T06:07:30.876Z,70.10
2018-06-20T11:46:44.055Z,65.10
2018-06-20T11:49:12.339Z,65.20
2018-06-20T11:51:42.893Z,65.10
2018-06-20T11:54:11.172Z,65.00
2018-06-20T11:56:39.483Z,64.90
2018-06-20T11:59:13.125Z,64.90
2018-06-20T12:01:46.915Z,64.90
2018-06-20T12:04:20.599Z,64.80
2018-06-20T12:06:54.331Z,64.80
2018-06-20T12:09:27.969Z,64.70
2018-06-20T12:12:01.735Z,64.60
2018-06-20T12:15:37.154Z,65.30
2018-06-20T12:18:10.759Z,64.70
2018-06-20T12:20:44.468Z,64.70
2018-06-20T12:23:18.210Z,64.70
2018-06-20T12:28:25.208Z,65.40
2018-06-20T12:30:58.943Z,64.80
2018-06-20T12:33:32.592Z,64.50
2018-06-20T12:36:06.408Z,64.60
2018-06-20T12:38:40.149Z,65.40
2018-06-20T12:43:47.416Z,65.00
2018-06-20T12:46:25.839Z,65.10
2018-06-20T12:48:54.217Z,65.20
2018-06-20T12:51:22.488Z,65.20
2018-06-20T12:53:50.767Z,64.70
2018-06-20T12:56:19.032Z,64.90
2018-06-20T12:58:47.354Z,65.10
2018-06-20T13:01:15.650Z,65.10
2018-06-20T13:06:12.039Z,64.70
2018-06-20T13:08:40.318Z,64.40
2018-06-20T13:11:08.650Z,64.40
2018-06-20T13:13:36.925Z,64.30
2018-06-20T13:16:05.209Z,64.50
2018-06-20T13:18:33.518Z,64.80
2018-06-20T13:21:01.809Z,64.60
2018-06-20T13:23:30.078Z,64.60
2018-06-20T13:25:58.358Z,65.40
2018-06-20T13:28:26.627Z,64.50
2018-06-20T13:31:00.216Z,64.60
2018-06-20T13:33:33.842Z,64.60
2018-06-20T13:36:07.644Z,64.50
2018-06-20T13:38:41.372Z,64.50
2018-06-20T13:41:14.995Z,64.30
2018-06-20T13:43:48.657Z,65.10
2018-06-20T13:46:22.358Z,64.20
2018-06-20T13:48:50.650Z,64.00
2018-06-20T13:51:18.940Z,63.80
2018-06-20T13:53:47.204Z,63.60
2018-06-20T13:56:15.538Z,63.50
2018-06-20T13:58:43.753Z,63.50
2018-06-20T14:01:12.041Z,63.50
2018-06-20T14:03:40.298Z,62.90
2018-06-20T14:06:08.673Z,62.70
2018-06-20T14:08:37.068Z,62.40
2018-06-20T14:11:05.351Z,62.40
2018-06-20T14:13:33.660Z,62.30
2018-06-20T14:16:01.953Z,62.20
2018-06-20T14:18:30.239Z,62.20
2018-06-20T14:21:03.896Z,62.20
2018-06-20T14:23:32.157Z,62.00
2018-06-20T14:26:00.452Z,62.00
2018-06-20T14:28:28.733Z,61.90
2018-06-20T14:31:02.516Z,61.90
2018-06-20T14:33:36.109Z,62.00
2018-06-20T14:36:09.939Z,61.90
2018-06-20T14:38:43.673Z,61.90
2018-06-20T14:41:16.084Z,62.00
2018-06-20T14:43:49.681Z,62.00
2018-06-20T14:46:22.152Z,62.00
2018-06-20T14:48:50.437Z,62.10
2018-06-20T14:51:18.695Z,62.20
2018-06-20T14:53:46.985Z,62.20
2018-06-20T14:56:15.980Z,62.20
2018-06-20T14:58:44.298Z,62.30
2018-06-20T15:01:12.656Z,62.30
2018-06-20T15:03:40.893Z,62.30
2018-06-20T15:06:09.169Z,62.30
2018-06-20T15:08:37.450Z,62.20
2018-06-20T15:11:05.739Z,62.30
2018-06-20T15:13:34.041Z,62.30
2018-06-20T15:17:04.983Z,62.40
2018-06-20T15:19:33.247Z,62.40
2018-06-20T15:22:01.584Z,62.50
2018-06-20T15:24:30.719Z,62.60
2018-06-20T15:27:04.281Z,62.70
2018-06-20T15:29:37.831Z,62.70
2018-06-20T15:33:09.968Z,63.30
2018-06-20T15:35:43.652Z,62.60
2018-06-20T15:38:19.786Z,63.00
2018-06-20T15:40:48.055Z,63.10
2018-06-20T15:45:44.375Z,63.00
2018-06-20T15:48:12.671Z,62.90
2018-06-20T15:50:41.044Z,62.80
2018-06-20T15:53:09.317Z,62.70
2018-06-20T15:55:37.620Z,62.60
2018-06-20T15:58:05.907Z,62.40
2018-06-20T16:00:34.355Z,62.40
2018-06-20T16:03:02.723Z,62.30
2018-06-20T16:05:30.983Z,62.30
2018-06-20T16:07:59.265Z,62.10
2018-06-20T16:10:27.565Z,62.00
2018-06-20T16:12:55.947Z,61.90
2018-06-20T16:15:24.360Z,61.90
2018-06-20T16:17:52.658Z,61.90
2018-06-20T16:20:26.362Z,61.90
2018-06-20T16:23:00.022Z,62.20
2018-06-20T16:25:33.703Z,62.40
2018-06-20T16:30:36.867Z,62.40
2018-06-20T16:33:05.583Z,62.50
2018-06-20T16:35:34.162Z,62.80
2018-06-20T16:38:02.513Z,62.80
2018-06-20T16:40:30.813Z,62.70
2018-06-20T16:42:59.065Z,62.70
2018-06-20T16:45:27.361Z,62.70
2018-06-20T16:47:55.652Z,62.70
2018-06-20T16:50:23.950Z,62.80
2018-06-20T16:52:52.264Z,62.80
2018-06-20T16:55:20.845Z,62.50
2018-06-20T16:57:49.131Z,62.40
2018-06-20T17:00:17.418Z,62.10
2018-06-20T17:02:45.803Z,62.00
2018-06-20T17:05:14.499Z,61.90
2018-06-20T17:07:42.803Z,61.90
2018-06-20T17:10:11.080Z,62.30
2018-06-20T17:12:44.560Z,61.80
2018-06-20T17:15:18.272Z,62.60
2018-06-20T17:17:52.065Z,61.80
2018-06-20T17:20:25.713Z,61.60
2018-06-20T17:22:59.554Z,61.40
2018-06-20T17:25:29.307Z,61.10
2018-06-20T17:27:57.590Z,61.10
2018-06-20T17:30:25.971Z,61.00
2018-06-20T17:32:54.445Z,60.90
2018-06-20T17:35:22.746Z,60.90
2018-06-20T17:37:51.045Z,60.80
2018-06-20T17:42:47.357Z,60.30
2018-06-20T17:45:16.075Z,60.20
2018-06-20T17:47:44.530Z,60.00
2018-06-20T17:50:12.817Z,59.80
2018-06-20T17:52:41.251Z,59.80
2018-06-20T17:55:09.533Z,59.80
2018-06-20T17:57:37.985Z,59.60
2018-06-20T18:00:06.273Z,59.80
2018-06-20T18:02:34.555Z,59.70
2018-06-20T18:05:08.221Z,59.60
2018-06-20T18:07:41.928Z,60.10
2018-06-20T18:10:15.649Z,59.50
2018-06-20T18:12:49.448Z,59.60
2018-06-20T18:17:51.214Z,59.60
2018-06-20T18:20:19.492Z,59.60
2018-06-20T18:22:48.139Z,59.70
2018-06-20T18:27:44.445Z,60.30
2018-06-20T18:30:12.716Z,59.60
2018-06-20T18:32:41.011Z,59.60
2018-06-20T18:35:09.306Z,59.60
2018-06-20T18:37:37.602Z,59.50
2018-06-20T18:40:07.338Z,59.40
2018-06-20T18:42:35.905Z,59.30
2018-06-20T18:45:04.567Z,59.30
2018-06-20T18:47:38.394Z,59.40
2018-06-20T18:50:07.267Z,59.40
2018-06-20T18:55:10.281Z,59.20
2018-06-20T18:57:43.991Z,59.20
2018-06-20T19:00:17.741Z,59.20
2018-06-20T19:02:51.529Z,59.20
2018-06-20T19:07:58.785Z,59.10
2018-06-20T19:10:27.334Z,59.10
2018-06-20T19:12:55.618Z,59.20
2018-06-20T19:15:23.891Z,59.20
2018-06-20T19:17:52.195Z,59.20
2018-06-20T19:20:20.484Z,59.20
2018-06-20T19:22:48.789Z,59.20
2018-06-20T19:25:17.080Z,59.20
2018-06-20T19:27:45.360Z,59.10
2018-06-20T19:30:13.728Z,59.10
2018-06-20T19:32:42.021Z,59.30
2018-06-20T19:37:39.389Z,58.40
2018-06-20T19:40:07.709Z,57.80
2018-06-20T19:42:36.049Z,58.10
2018-06-20T19:45:04.433Z,58.10
2018-06-20T19:47:32.689Z,58.20
2018-06-20T19:50:01.111Z,58.40
2018-06-20T19:52:29.438Z,58.30
2018-06-20T19:54:57.830Z,58.30
2018-06-20T19:57:26.138Z,58.40
2018-06-20T19:59:54.450Z,58.30
2018-06-20T20:04:50.811Z,58.40
2018-06-20T20:07:19.073Z,58.70
2018-06-20T20:09:47.356Z,59.00
2018-06-20T20:12:15.694Z,59.30
2018-06-20T20:14:43.991Z,59.50
2018-06-20T20:17:12.467Z,59.60
2018-06-20T20:19:40.773Z,59.70
2018-06-20T20:22:09.425Z,59.80
2018-06-20T20:24:37.865Z,60.10
2018-06-20T20:27:06.168Z,60.20
2018-06-20T20:29:34.480Z,60.30
2018-06-20T20:32:02.797Z,60.30
2018-06-20T20:34:31.107Z,60.30
2018-06-20T20:36:59.407Z,60.50
2018-06-20T20:39:27.696Z,60.60
2018-06-20T20:41:56.008Z,60.90
2018-06-20T20:44:24.287Z,61.00
2018-06-20T20:46:52.588Z,61.20
2018-06-20T20:51:48.971Z,61.60
2018-06-20T20:54:17.278Z,61.70
2018-06-20T20:59:13.553Z,62.10
2018-06-20T21:01:41.869Z,62.20
2018-06-20T21:04:10.314Z,62.20
2018-06-20T21:06:38.647Z,62.40
2018-06-20T21:09:08.473Z,62.50
2018-06-20T21:11:36.805Z,62.70
2018-06-20T21:14:05.233Z,62.80
2018-06-20T21:16:33.571Z,62.70
2018-06-20T21:19:01.937Z,62.70
2018-06-20T21:21:30.726Z,62.90
2018-06-20T21:23:58.999Z,63.00
2018-06-20T21:26:27.266Z,62.90
2018-06-20T21:28:55.553Z,62.90
2018-06-20T21:31:24.155Z,62.80
2018-06-20T21:33:52.661Z,62.90
2018-06-20T21:36:21.036Z,62.90
2018-06-20T21:38:49.319Z,62.90
2018-06-20T21:43:45.712Z,63.00
2018-06-20T21:46:13.977Z,63.10
2018-06-20T21:48:42.357Z,63.10
2018-06-20T21:51:10.658Z,63.20
2018-06-20T21:53:38.925Z,63.20
2018-06-20T21:56:07.220Z,63.50
2018-06-20T21:58:35.485Z,63.50
2018-06-20T22:01:03.769Z,63.60
2018-06-20T22:03:32.049Z,63.80
2018-06-20T22:08:28.559Z,63.80
2018-06-20T22:10:56.815Z,63.70
2018-06-20T22:13:25.106Z,63.70
2018-06-20T22:15:53.393Z,63.70
2018-06-20T22:18:21.654Z,63.80
2018-06-20T22:20:49.927Z,63.90
2018-06-20T22:23:18.200Z,64.00
2018-06-20T22:28:14.498Z,64.10
2018-06-20T22:30:42.964Z,64.00
2018-06-20T22:33:11.270Z,64.10
2018-06-20T22:35:39.652Z,64.00
2018-06-20T22:38:07.908Z,64.00
2018-06-20T22:40:36.344Z,64.10
2018-06-20T22:43:04.866Z,64.20
2018-06-20T22:50:29.320Z,64.10
2018-06-20T22:52:57.596Z,64.00
2018-06-20T22:55:25.865Z,63.90
2018-06-20T22:57:54.244Z,64.00
2018-06-20T23:00:22.522Z,63.90
2018-06-20T23:02:50.786Z,63.80
2018-06-20T23:05:19.070Z,63.80
2018-06-20T23:07:47.337Z,63.70
2018-06-20T23:10:15.624Z,63.70
2018-06-20T23:12:43.940Z,63.70
2018-06-20T23:17:40.292Z,63.80
2018-06-20T23:20:08.544Z,63.70
2018-06-20T23:22:36.845Z,63.90
2018-06-20T23:25:05.141Z,64.00
2018-06-20T23:27:33.436Z,64.10
2018-06-20T23:32:29.769Z,64.30
2018-06-20T23:34:58.100Z,64.40
2018-06-20T23:37:26.376Z,64.20
2018-06-20T23:39:54.652Z,64.20
2018-06-20T23:42:22.924Z,64.20
2018-06-20T23:47:19.204Z,64.50
2018-06-20T23:49:47.484Z,64.50
2018-06-20T23:52:15.780Z,64.60
2018-06-20T23:54:44.031Z,64.60
2018-06-20T23:57:12.280Z,64.80
2018-06-20T23:59:40.554Z,64.80
